createdAt,value
2023-12-27T00:00:05.880Z,6.89
2023-12-27T00:02:32.790Z,6.91
2023-12-27T00:04:59.429Z,6.93
2023-12-27T00:07:26.105Z,6.94
2023-12-27T00:09:52.803Z,6.95
2023-12-27T00:12:19.581Z,6.99
2023-12-27T00:14:46.252Z,7.01
2023-12-27T00:17:12.976Z,7.06
2023-12-27T00:19:39.795Z,7.06
2023-12-27T00:22:06.532Z,7.08
2023-12-27T00:24:33.634Z,7.07
2023-12-27T00:27:00.353Z,7.09
2023-12-27T00:29:27.070Z,7.09
2023-12-27T00:31:53.805Z,7.06
2023-12-27T00:34:20.488Z,7.07
2023-12-27T00:36:47.233Z,7.09
2023-12-27T00:39:13.967Z,7.12
2023-12-27T00:41:40.640Z,7.14
2023-12-27T00:44:07.352Z,7.16
2023-12-27T00:46:34.048Z,7.16
2023-12-27T00:49:00.784Z,7.18
2023-12-27T00:51:27.525Z,7.17
2023-12-27T00:53:54.250Z,7.13
2023-12-27T00:56:20.896Z,7.16
2023-12-27T00:58:47.576Z,7.16
2023-12-27T01:01:14.539Z,7.15
2023-12-27T01:03:42.222Z,7.16
2023-12-27T01:06:10.307Z,7.17
2023-12-27T01:08:37.568Z,7.21
2023-12-27T01:11:04.795Z,7.19
2023-12-27T01:13:31.603Z,7.22
2023-12-27T01:16:00.398Z,7.21
2023-12-27T01:18:27.728Z,7.22
2023-12-27T01:20:54.576Z,7.23
2023-12-27T01:23:21.241Z,7.26
2023-12-27T01:25:47.937Z,7.29
2023-12-27T01:28:14.873Z,7.30
2023-12-27T01:30:41.792Z,7.32
2023-12-27T01:33:08.720Z,7.28
2023-12-27T01:35:35.450Z,7.27
2023-12-27T01:38:03.196Z,7.28
2023-12-27T01:40:31.338Z,7.31
2023-12-27T01:42:58.291Z,7.31
2023-12-27T01:45:25.246Z,7.32
2023-12-27T01:47:51.995Z,7.35
2023-12-27T01:50:19.527Z,7.36
2023-12-27T01:52:46.232Z,7.39
2023-12-27T01:55:13.128Z,7.38
2023-12-27T01:57:40.336Z,7.40
2023-12-27T02:00:08.577Z,7.40
2023-12-27T02:02:35.280Z,7.37
2023-12-27T02:05:02.038Z,7.39
2023-12-27T02:07:31.084Z,7.39
2023-12-27T02:09:58.914Z,7.38
2023-12-27T02:12:27.139Z,7.35
2023-12-27T02:14:53.940Z,7.36
2023-12-27T02:17:22.712Z,7.35
2023-12-27T02:19:50.096Z,7.37
2023-12-27T02:22:20.936Z,7.35
2023-12-27T02:24:56.644Z,7.34
2023-12-27T02:27:24.103Z,7.36
2023-12-27T02:29:50.903Z,7.33
2023-12-27T02:32:17.534Z,7.33
2023-12-27T02:34:44.501Z,7.33
2023-12-27T02:37:11.329Z,7.35
2023-12-27T02:39:37.983Z,7.37
2023-12-27T02:42:04.748Z,7.40
2023-12-27T02:44:31.449Z,7.39
2023-12-27T02:46:58.117Z,7.40
2023-12-27T02:49:24.875Z,7.36
2023-12-27T02:51:51.679Z,7.40
2023-12-27T02:54:18.339Z,7.41
2023-12-27T02:56:45.185Z,7.41
2023-12-27T02:59:11.927Z,7.40
2023-12-27T03:01:38.558Z,7.39
2023-12-27T03:04:05.247Z,7.41
2023-12-27T03:06:31.980Z,7.44
2023-12-27T03:08:58.799Z,7.42
2023-12-27T03:11:25.535Z,7.44
2023-12-27T03:13:52.165Z,7.42
2023-12-27T03:16:20.550Z,7.40
2023-12-27T03:18:47.347Z,7.41
2023-12-27T03:21:14.144Z,7.38
2023-12-27T03:23:40.795Z,7.43
2023-12-27T03:26:07.540Z,7.46
2023-12-27T03:28:34.212Z,7.47
2023-12-27T03:31:01.179Z,7.46
2023-12-27T03:33:28.137Z,7.47
2023-12-27T03:35:54.911Z,7.48
2023-12-27T03:38:21.614Z,7.48
2023-12-27T03:40:48.341Z,7.49
2023-12-27T03:43:15.427Z,7.50
2023-12-27T03:45:42.242Z,7.51
2023-12-27T03:48:09.305Z,7.49
2023-12-27T03:50:36.166Z,7.51
2023-12-27T03:53:02.920Z,7.46
2023-12-27T03:55:29.710Z,7.52
2023-12-27T03:57:56.576Z,7.51
2023-12-27T04:00:23.453Z,7.53
2023-12-27T04:02:50.276Z,7.53
2023-12-27T04:05:17.050Z,7.52
2023-12-27T04:07:43.729Z,7.56
2023-12-27T04:10:10.537Z,7.58
2023-12-27T04:12:37.291Z,7.58
2023-12-27T04:15:04.450Z,7.59
2023-12-27T04:17:31.268Z,7.60
2023-12-27T04:19:58.244Z,7.61
2023-12-27T04:22:24.888Z,7.63
2023-12-27T04:24:51.581Z,7.60
2023-12-27T04:27:18.227Z,7.58
2023-12-27T04:29:44.914Z,7.57
2023-12-27T04:32:11.573Z,7.58
2023-12-27T04:34:38.372Z,7.58
2023-12-27T04:37:06.723Z,7.57
2023-12-27T04:39:34.606Z,7.58
2023-12-27T04:42:01.424Z,7.61
2023-12-27T04:44:28.125Z,7.61
2023-12-27T04:46:54.851Z,7.64
2023-12-27T04:49:21.688Z,7.66
2023-12-27T04:51:48.616Z,7.69
2023-12-27T04:54:15.328Z,7.68
2023-12-27T04:56:41.982Z,7.72
2023-12-27T04:59:08.990Z,7.69
2023-12-27T05:01:35.682Z,7.71
2023-12-27T05:04:02.469Z,7.68
2023-12-27T05:06:29.273Z,7.69
2023-12-27T05:08:55.991Z,7.62
2023-12-27T05:11:23.013Z,7.65
2023-12-27T05:13:50.188Z,7.65
2023-12-27T05:16:18.886Z,7.64
2023-12-27T05:18:46.276Z,7.61
2023-12-27T05:21:14.847Z,7.56
2023-12-27T05:23:41.696Z,7.54
2023-12-27T05:26:08.504Z,7.53
2023-12-27T05:28:35.271Z,7.54
2023-12-27T05:31:02.238Z,7.53
2023-12-27T05:33:29.226Z,7.51
2023-12-27T05:35:58.241Z,7.51
2023-12-27T05:38:25.324Z,7.51
2023-12-27T05:40:52.007Z,7.50
2023-12-27T05:43:18.888Z,7.51
2023-12-27T05:45:45.625Z,7.50
2023-12-27T05:48:13.606Z,7.52
2023-12-27T05:50:40.343Z,7.52
2023-12-27T05:53:07.132Z,7.54
2023-12-27T05:55:33.997Z,7.56
2023-12-27T05:58:00.734Z,7.54
2023-12-27T06:00:27.514Z,7.54
2023-12-27T06:02:54.361Z,7.53
2023-12-27T06:05:21.376Z,7.52
2023-12-27T06:07:48.366Z,7.50
2023-12-27T06:10:16.169Z,7.49
2023-12-27T06:12:42.917Z,7.48
2023-12-27T06:15:12.232Z,7.49
2023-12-27T06:17:39.504Z,7.49
2023-12-27T06:20:09.165Z,7.49
2023-12-27T06:22:35.999Z,7.47
2023-12-27T06:25:02.739Z,7.46
2023-12-27T06:27:29.539Z,7.42
2023-12-27T06:29:56.277Z,7.39
2023-12-27T06:32:23.695Z,7.39
2023-12-27T06:34:50.500Z,7.37
2023-12-27T06:37:17.327Z,7.41
2023-12-27T06:39:44.259Z,7.40
2023-12-27T06:42:11.089Z,7.36
2023-12-27T06:44:37.935Z,7.38
2023-12-27T06:47:04.728Z,7.39
2023-12-27T06:49:31.685Z,7.38
2023-12-27T06:51:58.486Z,7.33
2023-12-27T06:54:25.459Z,7.35
2023-12-27T06:56:52.172Z,7.32
2023-12-27T06:59:18.871Z,7.33
2023-12-27T07:01:45.743Z,7.32
2023-12-27T07:04:12.809Z,7.35
2023-12-27T07:06:40.481Z,7.32
2023-12-27T07:09:08.621Z,7.32
2023-12-27T07:11:35.378Z,7.31
2023-12-27T07:14:02.135Z,7.28
2023-12-27T07:16:28.871Z,7.26
2023-12-27T07:18:55.686Z,7.25
2023-12-27T07:21:22.553Z,7.28
2023-12-27T07:23:49.351Z,7.29
2023-12-27T07:26:16.061Z,7.32
2023-12-27T07:28:43.317Z,7.33
2023-12-27T07:31:10.124Z,7.34
2023-12-27T07:33:38.527Z,7.31
2023-12-27T07:36:06.002Z,7.28
2023-12-27T07:38:32.666Z,7.24
2023-12-27T07:40:59.317Z,7.23
2023-12-27T07:43:26.676Z,7.22
2023-12-27T07:45:53.553Z,7.19
2023-12-27T07:48:20.322Z,7.18
2023-12-27T07:50:47.569Z,7.14
2023-12-27T07:53:14.240Z,7.11
2023-12-27T07:55:40.959Z,7.12
2023-12-27T07:58:09.596Z,7.06
2023-12-27T08:00:36.739Z,7.06
2023-12-27T08:03:09.648Z,7.01
2023-12-27T08:05:37.290Z,7.00
2023-12-27T08:08:07.165Z,7.00
2023-12-27T08:10:33.872Z,6.98
2023-12-27T08:13:01.488Z,6.98
2023-12-27T08:15:28.346Z,6.99
2023-12-27T08:17:56.354Z,6.97
2023-12-27T08:20:25.301Z,6.98
2023-12-27T08:22:52.664Z,7.00
2023-12-27T08:25:19.443Z,7.01
2023-12-27T08:27:46.246Z,7.04
2023-12-27T08:30:13.312Z,7.04
2023-12-27T08:32:40.620Z,7.05
2023-12-27T08:35:07.889Z,7.07
2023-12-27T08:37:34.514Z,7.07
2023-12-27T08:40:01.198Z,7.08
2023-12-27T08:42:27.968Z,7.09
2023-12-27T08:44:54.633Z,7.06
2023-12-27T08:47:21.354Z,7.09
2023-12-27T08:49:48.702Z,7.08
2023-12-27T08:52:15.405Z,7.07
2023-12-27T08:54:42.262Z,7.06
2023-12-27T08:57:10.502Z,7.04
2023-12-27T08:59:37.228Z,7.04
2023-12-27T09:02:05.057Z,7.06
2023-12-27T09:04:31.848Z,7.04
2023-12-27T09:06:58.616Z,7.05
2023-12-27T09:09:25.367Z,7.11
2023-12-27T09:11:52.050Z,7.15
2023-12-27T09:14:18.680Z,7.19
2023-12-27T09:16:45.619Z,7.21
2023-12-27T09:19:13.511Z,7.24
2023-12-27T09:21:47.103Z,7.28
2023-12-27T09:24:14.812Z,7.29
2023-12-27T09:26:42.111Z,7.26
2023-12-27T09:29:12.572Z,7.25
2023-12-27T09:31:39.645Z,7.27
2023-12-27T09:34:07.223Z,7.27
2023-12-27T09:36:34.222Z,7.23
2023-12-27T09:39:01.152Z,7.15
2023-12-27T09:41:27.864Z,7.15
2023-12-27T09:43:56.279Z,7.12
2023-12-27T09:46:25.717Z,7.13
2023-12-27T09:48:52.887Z,7.11
2023-12-27T09:51:24.692Z,7.12
2023-12-27T09:53:52.648Z,7.15
2023-12-27T09:56:27.115Z,7.14
2023-12-27T09:59:01.168Z,7.16
2023-12-27T10:01:31.187Z,7.15
2023-12-27T10:04:12.837Z,7.19
2023-12-27T10:06:44.658Z,7.20
2023-12-27T10:09:15.263Z,7.18
2023-12-27T10:11:44.033Z,7.22
2023-12-27T10:14:11.419Z,7.24
2023-12-27T10:16:38.139Z,7.25
2023-12-27T10:19:09.526Z,7.28
2023-12-27T10:21:43.745Z,7.24
2023-12-27T10:24:13.940Z,7.22
2023-12-27T10:26:40.618Z,7.21
2023-12-27T10:29:09.309Z,7.23
2023-12-27T10:31:36.319Z,7.21
2023-12-27T10:34:05.224Z,7.23
2023-12-27T10:36:32.346Z,7.22
2023-12-27T10:39:04.132Z,7.23
2023-12-27T10:41:33.686Z,7.23
2023-12-27T10:44:01.989Z,7.26
2023-12-27T10:46:28.814Z,7.25
2023-12-27T10:48:57.917Z,7.27
2023-12-27T10:51:26.997Z,7.28
2023-12-27T10:54:00.362Z,7.28
2023-12-27T10:56:27.909Z,7.26
2023-12-27T10:58:55.061Z,7.27
2023-12-27T11:01:23.175Z,7.26
2023-12-27T11:03:51.378Z,7.25
2023-12-27T11:06:18.817Z,7.24
2023-12-27T11:08:48.120Z,7.25
2023-12-27T11:11:15.683Z,7.28
2023-12-27T11:13:43.855Z,7.30
2023-12-27T11:16:13.781Z,7.32
2023-12-27T11:18:41.683Z,7.37
2023-12-27T11:21:08.409Z,7.44
2023-12-27T11:23:35.270Z,7.49
2023-12-27T11:26:03.308Z,7.52
2023-12-27T11:28:33.777Z,7.54
2023-12-27T11:31:01.080Z,7.56
2023-12-27T11:33:30.448Z,7.55
2023-12-27T11:35:59.317Z,7.52
2023-12-27T11:38:29.744Z,7.49
2023-12-27T11:40:58.548Z,7.50
2023-12-27T11:43:27.522Z,7.53
2023-12-27T11:46:01.387Z,7.57
2023-12-27T11:48:37.558Z,7.55
2023-12-27T11:51:29.519Z,7.52
2023-12-27T11:53:57.179Z,7.53
2023-12-27T11:56:24.540Z,7.53
2023-12-27T11:58:51.273Z,7.53
2023-12-27T12:01:29.814Z,7.54
2023-12-27T12:04:16.113Z,7.54
2023-12-27T12:06:55.182Z,7.52
2023-12-27T12:09:28.428Z,7.50
2023-12-27T12:11:55.369Z,7.50
2023-12-27T12:14:22.955Z,7.46
2023-12-27T12:16:51.197Z,7.47
2023-12-27T12:19:19.136Z,7.46
2023-12-27T12:21:47.138Z,7.46
2023-12-27T12:24:16.021Z,7.45
2023-12-27T12:26:47.118Z,7.45
2023-12-27T12:29:13.839Z,7.43
2023-12-27T12:31:41.574Z,7.45
2023-12-27T12:34:08.421Z,7.45
2023-12-27T12:36:35.367Z,7.47
2023-12-27T12:39:04.893Z,7.49
2023-12-27T12:41:32.712Z,7.50
2023-12-27T12:43:59.397Z,7.42
2023-12-27T12:46:26.462Z,7.43
2023-12-27T12:48:53.398Z,7.38
2023-12-27T12:51:21.243Z,7.40
2023-12-27T12:53:48.497Z,7.42
2023-12-27T12:56:15.702Z,7.45
2023-12-27T12:58:43.351Z,7.45
2023-12-27T13:01:13.662Z,7.44
2023-12-27T13:03:43.113Z,7.45
2023-12-27T13:06:14.619Z,7.45
2023-12-27T13:08:42.436Z,7.46
2023-12-27T13:11:09.920Z,7.48
2023-12-27T13:13:36.615Z,7.46
2023-12-27T13:16:03.329Z,7.42
2023-12-27T13:18:30.458Z,7.37
2023-12-27T13:20:57.489Z,7.36
2023-12-27T13:23:24.160Z,7.30
2023-12-27T13:25:50.881Z,7.29
2023-12-27T13:28:26.348Z,7.25
2023-12-27T13:30:56.889Z,7.21
2023-12-27T13:33:26.297Z,7.16
2023-12-27T13:35:53.347Z,7.15
2023-12-27T13:38:20.255Z,7.12
2023-12-27T13:40:47.080Z,7.11
2023-12-27T13:43:15.359Z,7.13
2023-12-27T13:45:42.270Z,7.11
2023-12-27T13:48:09.206Z,7.07
2023-12-27T13:50:36.667Z,7.03
2023-12-27T13:53:03.490Z,7.00
2023-12-27T13:55:30.814Z,6.95
2023-12-27T13:57:57.799Z,6.95
2023-12-27T14:00:25.338Z,6.95
2023-12-27T14:02:52.260Z,6.94
2023-12-27T14:05:19.324Z,6.91
2023-12-27T14:07:50.118Z,6.89
2023-12-27T14:10:19.634Z,6.86
2023-12-27T14:12:46.348Z,6.87
2023-12-27T14:15:14.632Z,6.84
2023-12-27T14:17:42.929Z,6.88
2023-12-27T14:20:16.339Z,6.89
2023-12-27T14:22:43.621Z,6.92
2023-12-27T14:25:11.744Z,6.92
2023-12-27T14:27:40.390Z,6.92
2023-12-27T14:30:08.446Z,6.89
2023-12-27T14:32:35.328Z,6.89
2023-12-27T14:35:05.487Z,6.89
2023-12-27T14:37:33.108Z,6.89
2023-12-27T14:40:00.353Z,6.86
2023-12-27T14:42:28.700Z,6.87
2023-12-27T14:44:55.658Z,6.86
2023-12-27T14:47:22.719Z,6.90
2023-12-27T14:49:49.904Z,6.90
2023-12-27T14:52:16.896Z,6.93
2023-12-27T14:54:45.728Z,6.94
2023-12-27T14:57:12.954Z,6.97
2023-12-27T14:59:39.716Z,6.96
2023-12-27T15:02:07.578Z,6.97
2023-12-27T15:04:34.641Z,6.97
2023-12-27T15:07:02.840Z,6.95
2023-12-27T15:09:29.769Z,6.96
2023-12-27T15:11:56.693Z,6.93
2023-12-27T15:14:23.515Z,6.94
2023-12-27T15:16:51.527Z,6.92
2023-12-27T15:19:19.778Z,6.91
2023-12-27T15:21:47.620Z,6.90
2023-12-27T15:24:14.672Z,6.92
2023-12-27T15:26:41.889Z,6.91
2023-12-27T15:29:10.364Z,6.93
2023-12-27T15:31:37.167Z,6.93
2023-12-27T15:34:04.271Z,6.93
2023-12-27T15:36:31.200Z,6.92
2023-12-27T15:38:57.967Z,6.92
2023-12-27T15:41:28.911Z,6.90
2023-12-27T15:44:02.232Z,6.92
2023-12-27T15:46:31.099Z,6.90
2023-12-27T15:48:59.179Z,6.86
2023-12-27T15:51:46.206Z,6.90
2023-12-27T15:54:14.358Z,6.87
2023-12-27T15:56:46.320Z,6.85
2023-12-27T15:59:14.611Z,6.83
2023-12-27T16:01:44.465Z,6.81
2023-12-27T16:04:13.822Z,6.80
2023-12-27T16:06:42.273Z,6.81
2023-12-27T16:09:09.189Z,6.83
2023-12-27T16:11:38.053Z,6.83
2023-12-27T16:14:04.846Z,6.81
2023-12-27T16:16:31.537Z,6.79
2023-12-27T16:18:58.545Z,6.77
2023-12-27T16:21:25.760Z,6.79
2023-12-27T16:23:52.614Z,6.81
2023-12-27T16:26:21.673Z,6.83
2023-12-27T16:28:49.271Z,6.82
2023-12-27T16:31:16.412Z,6.82
2023-12-27T16:33:43.413Z,6.78
2023-12-27T16:36:11.606Z,6.79
2023-12-27T16:38:41.296Z,6.80
2023-12-27T16:41:09.575Z,6.80
2023-12-27T16:43:40.385Z,6.81
2023-12-27T16:46:10.081Z,6.77
2023-12-27T16:48:37.054Z,6.76
2023-12-27T16:51:04.136Z,6.75
2023-12-27T16:53:31.019Z,6.73
2023-12-27T16:55:57.959Z,6.72
2023-12-27T16:58:24.613Z,6.65
2023-12-27T17:00:51.445Z,6.70
2023-12-27T17:03:18.640Z,6.71
2023-12-27T17:05:47.562Z,6.69
2023-12-27T17:08:22.759Z,6.68
2023-12-27T17:10:49.483Z,6.65
2023-12-27T17:13:36.564Z,6.65
2023-12-27T17:16:05.701Z,6.65
2023-12-27T17:18:32.555Z,6.66
2023-12-27T17:20:59.461Z,6.68
2023-12-27T17:23:26.244Z,6.66
2023-12-27T17:25:53.231Z,6.64
2023-12-27T17:28:19.994Z,6.65
2023-12-27T17:30:46.751Z,6.63
2023-12-27T17:33:13.661Z,6.62
2023-12-27T17:35:40.659Z,6.60
2023-12-27T17:38:07.383Z,6.59
2023-12-27T17:40:34.372Z,6.59
2023-12-27T17:43:02.148Z,6.57
2023-12-27T17:45:29.656Z,6.55
2023-12-27T17:47:56.930Z,6.53
2023-12-27T17:50:33.686Z,6.53
2023-12-27T17:53:03.038Z,6.53
2023-12-27T17:55:29.741Z,6.50
2023-12-27T17:57:59.787Z,6.48
2023-12-27T18:00:42.902Z,6.44
2023-12-27T18:06:12.356Z,6.41
2023-12-27T18:08:39.392Z,6.37
2023-12-27T18:11:06.273Z,6.39
2023-12-27T18:13:34.942Z,6.31
2023-12-27T18:16:02.237Z,6.39
2023-12-27T18:18:35.747Z,6.37
2023-12-27T18:21:07.329Z,6.37
2023-12-27T18:23:39.021Z,6.28
2023-12-27T18:26:08.602Z,6.32
2023-12-27T18:28:36.780Z,6.28
2023-12-27T18:31:03.769Z,6.30
2023-12-27T18:33:30.964Z,6.30
2023-12-27T18:35:59.052Z,6.31
2023-12-27T18:38:26.367Z,6.30
2023-12-27T18:40:54.024Z,6.27
2023-12-27T18:43:23.110Z,6.30
2023-12-27T18:45:49.851Z,6.30
2023-12-27T18:48:16.941Z,6.27
2023-12-27T18:50:43.967Z,6.23
2023-12-27T18:53:12.229Z,6.23
2023-12-27T18:55:38.969Z,6.23
2023-12-27T18:58:08.648Z,6.21
2023-12-27T19:04:01.727Z,6.17
2023-12-27T19:06:34.699Z,6.13
2023-12-27T19:09:38.232Z,6.15
2023-12-27T19:12:11.130Z,6.12
2023-12-27T19:14:38.692Z,6.04
2023-12-27T19:17:10.674Z,6.06
2023-12-27T19:19:37.561Z,6.07
2023-12-27T19:22:04.545Z,6.03
2023-12-27T19:25:28.888Z,6.02
2023-12-27T19:27:58.400Z,5.99
2023-12-27T19:30:25.606Z,5.99
2023-12-27T19:32:52.670Z,5.99
2023-12-27T19:35:19.905Z,6.00
2023-12-27T19:37:46.809Z,5.99
2023-12-27T19:43:02.093Z,5.95
2023-12-27T19:45:28.847Z,5.94
2023-12-27T19:47:56.277Z,5.91
2023-12-27T19:50:23.226Z,5.92
2023-12-27T19:55:33.403Z,5.89
2023-12-27T19:58:00.656Z,5.85
2023-12-27T20:00:27.630Z,5.81
2023-12-27T20:02:54.406Z,5.80
2023-12-27T20:05:21.088Z,5.79
2023-12-27T20:07:47.858Z,5.81
2023-12-27T20:10:15.060Z,5.77
2023-12-27T20:12:42.292Z,5.76
2023-12-27T20:15:29.877Z,5.74
2023-12-27T20:17:57.147Z,5.74
2023-12-27T20:20:24.591Z,5.75
2023-12-27T20:22:52.592Z,5.75
2023-12-27T20:25:47.146Z,5.77
2023-12-27T20:28:17.326Z,5.80
2023-12-27T20:30:46.617Z,5.81
2023-12-27T20:33:16.519Z,5.81
2023-12-27T20:35:43.248Z,5.82
2023-12-27T20:38:10.297Z,5.86
2023-12-27T20:40:37.278Z,5.90
2023-12-27T20:43:05.165Z,5.92
2023-12-27T20:45:32.024Z,5.98
2023-12-27T20:47:59.496Z,6.04
2023-12-27T20:50:27.640Z,6.07
2023-12-27T20:52:56.104Z,6.13
2023-12-27T20:55:23.013Z,6.18
2023-12-27T20:57:50.443Z,6.18
2023-12-27T21:00:17.469Z,6.21
2023-12-27T21:02:44.457Z,6.24
2023-12-27T21:05:12.355Z,6.28
2023-12-27T21:07:39.582Z,6.27
2023-12-27T21:10:07.843Z,6.32
2023-12-27T21:12:40.386Z,6.32
2023-12-27T21:15:09.912Z,6.34
2023-12-27T21:17:39.405Z,6.33
2023-12-27T21:20:07.498Z,6.37
2023-12-27T21:22:34.727Z,6.41
2023-12-27T21:25:01.822Z,6.42
2023-12-27T21:27:28.642Z,6.41
2023-12-27T21:30:01.201Z,6.39
2023-12-27T21:32:29.285Z,6.42
2023-12-27T21:34:56.654Z,6.38
2023-12-27T21:37:23.481Z,6.41
2023-12-27T21:39:50.264Z,6.43
2023-12-27T21:42:17.018Z,6.39
2023-12-27T21:44:43.772Z,6.43
2023-12-27T21:47:10.432Z,6.45
2023-12-27T21:49:37.333Z,6.43
2023-12-27T21:52:04.417Z,6.41
2023-12-27T21:54:38.552Z,6.42
2023-12-27T21:57:08.665Z,6.42
2023-12-27T21:59:35.671Z,6.46
2023-12-27T22:02:02.683Z,6.46
2023-12-27T22:04:29.623Z,6.44
2023-12-27T22:06:56.317Z,6.43
2023-12-27T22:09:23.156Z,6.39
2023-12-27T22:11:50.092Z,6.32
2023-12-27T22:14:16.891Z,6.29
2023-12-27T22:16:43.540Z,6.29
2023-12-27T22:19:10.486Z,6.26
2023-12-27T22:21:37.994Z,6.24
2023-12-27T22:24:05.135Z,6.23
2023-12-27T22:26:31.966Z,6.22
2023-12-27T22:28:58.636Z,6.22
2023-12-27T22:31:25.928Z,6.19
2023-12-27T22:33:53.041Z,6.16
2023-12-27T22:36:23.103Z,6.17
2023-12-27T22:38:54.274Z,6.15
2023-12-27T22:41:21.005Z,6.15
2023-12-27T22:43:47.653Z,6.13
2023-12-27T22:46:16.500Z,6.14
2023-12-27T22:48:43.372Z,6.11
2023-12-27T22:51:10.176Z,6.11
2023-12-27T22:53:36.921Z,6.07
2023-12-27T22:56:03.801Z,6.06
2023-12-27T22:58:30.484Z,6.06
2023-12-27T23:00:57.473Z,6.04
2023-12-27T23:03:25.325Z,6.02
2023-12-27T23:06:39.709Z,6.01
2023-12-27T23:13:45.732Z,5.90
2023-12-27T23:17:05.315Z,5.87
2023-12-27T23:19:32.277Z,5.94
2023-12-27T23:21:59.089Z,5.98
2023-12-27T23:24:25.843Z,6.01
2023-12-27T23:26:52.570Z,6.04
2023-12-27T23:29:19.238Z,6.06
2023-12-27T23:31:45.945Z,6.10
2023-12-27T23:34:13.057Z,6.09
2023-12-27T23:36:39.885Z,6.17
2023-12-27T23:39:06.594Z,6.20
2023-12-27T23:41:35.816Z,6.20
2023-12-27T23:44:02.523Z,6.23
2023-12-27T23:46:29.210Z,6.21
2023-12-27T23:48:57.269Z,6.25
2023-12-27T23:51:24.099Z,6.23
2023-12-27T23:53:50.820Z,6.22
2023-12-27T23:56:17.630Z,6.20
2023-12-27T23:58:44.552Z,6.17
